Time;durP1;ratioP1;P1;durP2;ratioP2;P2;SDS_P1;SDS_P2;PMS_P1;PMS_P2;Temp;Humidity;BMP_temperature;BMP_pressure;BME280_temperature;BME280_humidity;BME280_pressure;Samples;Min_cycle;Max_cycle;Signal;HPM_P1;HPM_P2
2023/05/06 00:01:11;;;;;;;2.10;1.57;;;15.00;99.90;;;;;;5112345;28;20475;-72
2023/05/06 00:03:39;;;;;;;2.10;1.70;;;15.20;99.90;;;;;;5111571;28;20459;-76
2023/05/06 00:06:07;;;;;;;3.37;1.73;;;15.00;99.90;;;;;;5112134;28;20444;-73
2023/05/06 00:08:34;;;;;;;4.03;2.17;;;14.90;99.90;;;;;;5111769;28;20494;-72
2023/05/06 00:11:01;;;;;;;2.27;1.50;;;15.00;99.90;;;;;;5111438;28;20450;-69
2023/05/06 00:13:28;;;;;;;12.90;2.17;;;14.90;99.90;;;;;;5111507;28;20455;-70
2023/05/06 00:15:55;;;;;;;3.10;2.07;;;14.90;99.90;;;;;;5111076;28;21279;-72
2023/05/06 00:18:22;;;;;;;4.77;1.93;;;14.80;99.90;;;;;;5112211;28;20450;-73
2023/05/06 00:20:50;;;;;;;2.60;1.70;;;14.70;99.90;;;;;;5110726;28;20460;-72
2023/05/06 00:23:17;;;;;;;4.00;2.30;;;14.90;99.90;;;;;;5111529;28;20448;-72
2023/05/06 00:25:44;;;;;;;2.30;1.77;;;14.90;99.90;;;;;;5111266;28;20451;-72
2023/05/06 00:28:11;;;;;;;2.10;1.50;;;14.80;99.90;;;;;;5111848;28;20436;-72
2023/05/06 00:30:38;;;;;;;2.20;1.40;;;14.90;99.90;;;;;;5110997;28;20455;-77
2023/05/06 00:33:04;;;;;;;2.47;1.40;;;15.00;99.90;;;;;;5111333;28;20483;-68
2023/05/06 00:35:31;;;;;;;2.43;1.70;;;14.80;99.90;;;;;;5111418;28;20930;-70
2023/05/06 00:38:08;;;;;;;3.00;1.50;;;14.60;99.90;;;;;;5110649;28;20451;-70
2023/05/06 00:40:35;;;;;;;2.20;1.30;;;14.60;99.90;;;;;;5111394;28;20843;-74
2023/05/06 00:43:02;;;;;;;3.23;1.80;;;14.60;99.90;;;;;;5110993;28;20456;-71
2023/05/06 00:45:29;;;;;;;2.50;1.50;;;14.70;99.90;;;;;;5111595;28;20448;-71
2023/05/06 00:47:57;;;;;;;4.13;1.87;;;14.70;99.90;;;;;;5110579;28;20634;-71
2023/05/06 00:50:24;;;;;;;4.07;2.00;;;14.90;99.90;;;;;;5111567;28;20462;-71
2023/05/06 00:52:53;;;;;;;3.33;1.50;;;14.80;99.90;;;;;;5109722;28;20476;-71
2023/05/06 00:55:21;;;;;;;2.40;1.70;;;14.70;99.90;;;;;;5111114;28;20452;-71
2023/05/06 00:57:49;;;;;;;2.43;1.43;;;14.60;99.90;;;;;;5110538;28;20488;-71
2023/05/06 01:00:16;;;;;;;2.20;1.50;;;14.60;99.90;;;;;;5098366;28;20446;-71
2023/05/06 01:02:43;;;;;;;2.20;1.23;;;14.60;99.90;;;;;;5109987;28;20456;-71
2023/05/06 01:05:11;;;;;;;2.20;1.50;;;14.60;99.90;;;;;;5111025;28;20911;-73
2023/05/06 01:07:44;;;;;;;2.80;1.20;;;14.60;99.90;;;;;;5110068;28;20958;-76
2023/05/06 01:10:19;;;;;;;3.77;1.57;;;14.70;99.90;;;;;;5111506;28;20449;-72
2023/05/06 01:12:57;;;;;;;2.30;2.00;;;14.50;99.90;;;;;;5110415;28;20565;-71
2023/05/06 01:15:30;;;;;;;2.60;1.40;;;14.60;99.90;;;;;;5111329;28;20439;-70
2023/05/06 01:17:59;;;;;;;1.63;0.97;;;14.60;99.90;;;;;;5109788;28;20451;-71
2023/05/06 01:20:27;;;;;;;2.47;1.50;;;14.60;99.90;;;;;;5111487;28;20450;-71
2023/05/06 01:22:54;;;;;;;3.20;1.53;;;14.50;99.90;;;;;;5109888;28;20455;-71
2023/05/06 01:25:23;;;;;;;3.97;1.83;;;14.60;99.90;;;;;;5111032;28;20980;-72
2023/05/06 01:27:50;;;;;;;3.00;1.60;;;14.60;99.90;;;;;;5110105;28;20447;-70
2023/05/06 01:30:19;;;;;;;2.00;1.30;;;14.70;99.90;;;;;;5111205;28;20540;-72
2023/05/06 01:32:58;;;;;;;1.70;0.90;;;14.60;99.90;;;;;;5096536;28;20539;-71
2023/05/06 01:35:33;;;;;;;2.43;1.30;;;14.50;99.90;;;;;;5111085;28;21122;-72
2023/05/06 01:38:09;;;;;;;3.60;2.00;;;14.50;99.90;;;;;;5110344;28;20449;-71
2023/05/06 01:40:38;;;;;;;2.00;1.20;;;14.30;99.90;;;;;;5110527;28;20444;-77
2023/05/06 01:43:06;;;;;;;2.40;1.57;;;14.30;99.90;;;;;;5110277;28;20957;-74
2023/05/06 01:45:36;;;;;;;2.33;1.30;;;14.40;99.90;;;;;;5110623;28;20935;-71
2023/05/06 01:48:03;;;;;;;3.17;1.20;;;14.20;99.90;;;;;;5110404;28;20456;-71
2023/05/06 01:50:31;;;;;;;2.13;1.30;;;14.20;99.90;;;;;;5097414;28;20444;-71
2023/05/06 01:52:59;;;;;;;2.60;1.27;;;14.10;99.90;;;;;;5109288;28;20602;-71
2023/05/06 01:55:26;;;;;;;4.73;1.80;;;14.20;99.90;;;;;;5097045;28;20814;-70
2023/05/06 01:57:55;;;;;;;2.40;1.13;;;14.50;99.90;;;;;;5109773;28;20449;-72
2023/05/06 02:00:23;;;;;;;2.33;1.50;;;14.40;99.90;;;;;;5110580;28;20529;-72
2023/05/06 02:02:50;;;;;;;2.87;1.63;;;14.30;99.90;;;;;;5109899;28;20524;-72
2023/05/06 02:05:17;;;;;;;2.10;1.00;;;14.30;99.90;;;;;;5110877;28;20479;-73
2023/05/06 02:07:44;;;;;;;2.10;1.30;;;14.30;99.90;;;;;;5110054;28;20451;-71
2023/05/06 02:10:11;;;;;;;2.07;1.33;;;14.40;99.90;;;;;;5110797;28;20444;-72
2023/05/06 02:12:38;;;;;;;1.90;1.10;;;14.40;99.90;;;;;;5109914;28;20483;-72
2023/05/06 02:15:07;;;;;;;1.80;1.13;;;14.50;99.90;;;;;;5111237;28;20443;-75
2023/05/06 02:17:35;;;;;;;3.90;1.40;;;14.20;99.90;;;;;;5113286;28;20450;-71
2023/05/06 02:20:02;;;;;;;2.00;1.10;;;14.20;99.90;;;;;;5114414;28;20451;-72
2023/05/06 02:22:29;;;;;;;2.97;2.03;;;14.10;99.90;;;;;;5113150;28;20475;-70
2023/05/06 02:24:56;;;;;;;2.70;1.43;;;14.10;99.90;;;;;;5103949;28;20560;-70
2023/05/06 02:27:22;;;;;;;2.30;1.50;;;14.10;99.90;;;;;;5114067;28;20447;-69
2023/05/06 02:29:49;;;;;;;2.73;1.53;;;14.10;99.90;;;;;;5114669;27;20452;-69
2023/05/06 02:32:17;;;;;;;1.80;0.90;;;14.40;99.90;;;;;;5113999;28;20847;-69
2023/05/06 02:34:44;;;;;;;2.20;1.23;;;14.30;99.90;;;;;;5113777;28;20448;-69
2023/05/06 02:37:11;;;;;;;2.67;1.60;;;14.20;99.90;;;;;;5114031;28;20938;-69
2023/05/06 02:39:38;;;;;;;2.80;1.53;;;14.30;99.90;;;;;;5113323;28;20455;-69
2023/05/06 02:42:05;;;;;;;2.03;1.27;;;14.20;99.90;;;;;;5116751;27;20439;-70
2023/05/06 02:44:32;;;;;;;1.90;1.00;;;14.20;99.90;;;;;;5113992;28;20455;-69
2023/05/06 02:46:59;;;;;;;2.30;1.30;;;14.10;99.90;;;;;;5113136;28;20447;-69
2023/05/06 02:49:27;;;;;;;2.13;1.27;;;14.00;99.90;;;;;;5113960;28;20455;-70
2023/05/06 02:51:53;;;;;;;3.80;1.50;;;14.10;99.90;;;;;;5112521;28;20934;-69
2023/05/06 02:54:20;;;;;;;4.50;1.30;;;13.80;99.90;;;;;;5113662;28;20891;-69
2023/05/06 02:56:47;;;;;;;2.63;1.30;;;13.90;99.90;;;;;;5113171;28;20541;-69
2023/05/06 02:59:14;;;;;;;2.60;1.40;;;13.90;99.90;;;;;;5113661;28;20448;-70
2023/05/06 03:01:41;;;;;;;2.73;1.33;;;13.90;99.90;;;;;;5112421;28;20579;-71
2023/05/06 03:04:07;;;;;;;3.87;1.47;;;13.90;99.90;;;;;;5113616;28;20459;-71
2023/05/06 03:06:36;;;;;;;2.10;1.30;;;13.80;99.90;;;;;;5113480;28;20452;-71
2023/05/06 03:09:03;;;;;;;1.50;0.80;;;13.80;99.90;;;;;;5113362;28;20890;-71
2023/05/06 03:11:30;;;;;;;2.20;1.43;;;13.80;99.90;;;;;;5113034;28;20440;-71
2023/05/06 03:13:57;;;;;;;2.13;1.30;;;13.80;99.90;;;;;;5112570;28;20997;-71
2023/05/06 03:16:25;;;;;;;2.13;1.23;;;13.80;99.90;;;;;;5113467;28;20780;-71
2023/05/06 03:18:52;;;;;;;2.37;1.43;;;13.70;99.90;;;;;;5112762;28;21015;-72
2023/05/06 03:21:18;;;;;;;2.23;1.30;;;13.80;99.90;;;;;;5112949;28;20454;-73
2023/05/06 03:23:46;;;;;;;1.70;0.90;;;13.70;99.90;;;;;;5112836;28;20479;-71
2023/05/06 03:26:13;;;;;;;3.13;1.30;;;13.70;99.90;;;;;;5113231;28;20452;-71
2023/05/06 03:28:42;;;;;;;3.27;1.10;;;14.00;99.90;;;;;;5112672;28;20450;-72
2023/05/06 03:31:09;;;;;;;2.80;1.30;;;13.90;99.90;;;;;;5112870;28;20444;-71
2023/05/06 03:33:36;;;;;;;3.33;1.80;;;13.80;99.90;;;;;;5112488;28;20505;-74
2023/05/06 03:36:04;;;;;;;1.87;0.90;;;13.80;99.90;;;;;;5112490;28;20942;-72
2023/05/06 03:38:31;;;;;;;2.00;1.20;;;13.90;99.90;;;;;;5109119;28;20534;-72
2023/05/06 03:40:59;;;;;;;2.60;1.60;;;13.80;99.90;;;;;;5111959;28;20447;-72
2023/05/06 03:43:26;;;;;;;2.43;1.33;;;13.80;99.90;;;;;;5112534;28;20447;-70
2023/05/06 03:45:53;;;;;;;2.27;1.23;;;13.80;99.90;;;;;;5112315;28;20454;-72
2023/05/06 03:48:20;;;;;;;2.40;1.40;;;13.60;99.90;;;;;;5112666;28;20454;-71
2023/05/06 03:50:46;;;;;;;2.10;1.33;;;13.50;99.90;;;;;;5112285;28;20459;-70
2023/05/06 03:53:13;;;;;;;1.83;1.10;;;13.60;99.90;;;;;;5111622;28;20559;-72
2023/05/06 03:55:40;;;;;;;3.10;1.93;;;13.90;99.90;;;;;;5111658;28;20444;-72
2023/05/06 03:58:08;;;;;;;2.47;1.67;;;13.90;99.90;;;;;;5112225;28;20447;-72
2023/05/06 04:00:35;;;;;;;2.20;1.30;;;13.80;99.90;;;;;;5112065;28;20795;-78
2023/05/06 04:03:02;;;;;;;2.33;1.40;;;13.60;99.90;;;;;;5111546;28;20448;-74
2023/05/06 04:05:29;;;;;;;2.73;1.50;;;13.40;99.90;;;;;;5112209;28;20443;-72
2023/05/06 04:07:56;;;;;;;1.83;1.03;;;13.30;99.90;;;;;;5110864;28;20479;-72
2023/05/06 04:10:23;;;;;;;2.40;1.30;;;13.20;99.90;;;;;;5111820;28;21305;-72
2023/05/06 04:12:49;;;;;;;2.27;1.53;;;13.20;99.90;;;;;;5110212;28;20475;-72
2023/05/06 04:15:18;;;;;;;2.10;1.33;;;13.00;99.90;;;;;;5108413;28;20444;-72
2023/05/06 04:17:45;;;;;;;2.80;1.40;;;13.10;99.90;;;;;;5110540;28;20439;-72
2023/05/06 04:20:13;;;;;;;2.40;1.80;;;13.10;99.90;;;;;;5111478;28;20452;-72
2023/05/06 04:22:40;;;;;;;2.80;1.70;;;13.20;99.90;;;;;;5110029;28;20861;-75
2023/05/06 04:25:08;;;;;;;2.50;1.53;;;13.00;99.90;;;;;;5111432;28;20530;-72
2023/05/06 04:27:36;;;;;;;3.30;1.80;;;13.00;99.90;;;;;;5110986;28;20536;-78
2023/05/06 04:30:03;;;;;;;2.33;1.50;;;13.10;99.90;;;;;;5112249;28;20448;-72
2023/05/06 04:32:32;;;;;;;2.30;1.50;;;13.40;99.90;;;;;;5111555;28;20448;-72
2023/05/06 04:34:59;;;;;;;3.77;2.17;;;13.40;99.90;;;;;;5111636;28;20461;-72
2023/05/06 04:37:27;;;;;;;2.87;1.40;;;13.30;99.90;;;;;;5111211;28;20447;-72
2023/05/06 04:39:54;;;;;;;2.20;1.30;;;13.30;99.90;;;;;;5111186;28;20447;-73
2023/05/06 04:42:21;;;;;;;2.77;1.70;;;13.20;99.90;;;;;;5111568;28;20521;-74
2023/05/06 04:44:48;;;;;;;3.50;1.63;;;13.20;99.90;;;;;;5111182;28;20455;-72
2023/05/06 04:47:15;;;;;;;3.43;1.80;;;13.10;99.90;;;;;;5111952;28;20833;-73
2023/05/06 04:49:44;;;;;;;3.23;1.90;;;13.40;99.90;;;;;;5111179;28;20440;-71
2023/05/06 04:52:10;;;;;;;3.90;1.93;;;13.50;99.90;;;;;;5111131;28;20484;-71
2023/05/06 04:54:37;;;;;;;2.10;1.30;;;13.40;99.90;;;;;;5110800;28;20487;-71
2023/05/06 04:57:04;;;;;;;2.63;1.63;;;13.60;99.90;;;;;;5111971;28;20448;-70
2023/05/06 04:59:31;;;;;;;3.80;1.47;;;13.70;99.90;;;;;;5111922;28;20798;-71
2023/05/06 05:01:58;;;;;;;3.60;1.80;;;13.70;99.90;;;;;;5110974;28;20452;-71
2023/05/06 05:04:25;;;;;;;2.60;1.60;;;13.70;99.90;;;;;;5111611;28;20444;-70
2023/05/06 05:06:53;;;;;;;2.70;1.60;;;13.60;99.90;;;;;;5111071;28;20506;-73
2023/05/06 05:09:20;;;;;;;2.60;1.33;;;13.30;99.90;;;;;;5111496;28;20475;-71
2023/05/06 05:11:46;;;;;;;2.87;1.67;;;13.40;99.90;;;;;;5110454;28;20439;-71
2023/05/06 05:14:13;;;;;;;4.70;1.50;;;13.60;99.90;;;;;;5111017;28;20475;-71
2023/05/06 05:16:40;;;;;;;1.97;1.13;;;13.40;99.90;;;;;;5110616;28;20950;-71
2023/05/06 05:19:07;;;;;;;3.10;1.83;;;13.50;99.90;;;;;;5111040;28;20451;-72
2023/05/06 05:21:34;;;;;;;3.17;1.80;;;13.70;99.90;;;;;;5111966;28;20939;-73
2023/05/06 05:24:02;;;;;;;3.13;1.83;;;13.80;99.90;;;;;;5111021;28;21044;-72
2023/05/06 05:26:28;;;;;;;2.90;1.67;;;13.70;99.90;;;;;;5111468;28;20448;-72
2023/05/06 05:28:55;;;;;;;2.50;1.43;;;13.70;99.90;;;;;;5110615;28;20538;-72
2023/05/06 05:31:22;;;;;;;3.33;2.07;;;13.70;99.90;;;;;;5110924;28;20444;-71
2023/05/06 05:33:49;;;;;;;2.37;1.50;;;13.90;99.90;;;;;;5110404;28;20913;-71
2023/05/06 05:36:16;;;;;;;3.00;2.00;;;13.80;99.90;;;;;;5111242;28;20789;-71
2023/05/06 05:38:43;;;;;;;2.00;1.40;;;13.90;99.90;;;;;;5110619;28;20478;-70
2023/05/06 05:41:14;;;;;;;3.33;2.60;;;14.10;99.90;;;;;;5110386;28;20946;-70
2023/05/06 05:43:40;;;;;;;2.10;1.30;;;14.20;99.90;;;;;;5110342;28;20451;-70
2023/05/06 05:46:07;;;;;;;2.23;1.40;;;14.20;99.90;;;;;;5111110;28;20459;-71
2023/05/06 05:48:34;;;;;;;2.80;1.27;;;14.30;99.90;;;;;;5108246;28;20506;-70
2023/05/06 05:51:01;;;;;;;2.80;1.43;;;14.30;99.90;;;;;;5111193;28;20801;-71
2023/05/06 05:53:28;;;;;;;1.90;1.20;;;14.40;99.90;;;;;;5114413;28;20482;-73
2023/05/06 05:55:55;;;;;;;3.20;1.90;;;14.50;99.90;;;;;;5114738;28;20971;-73
2023/05/06 05:58:23;;;;;;;2.23;1.30;;;14.60;99.90;;;;;;5114238;28;20455;-74
2023/05/06 06:00:51;;;;;;;2.23;1.40;;;14.60;99.90;;;;;;5113813;28;20530;-70
2023/05/06 06:03:18;;;;;;;3.00;1.90;;;14.80;99.90;;;;;;5112996;28;20856;-69
2023/05/06 06:05:45;;;;;;;1.90;1.20;;;15.00;99.90;;;;;;5113858;28;20450;-70
2023/05/06 06:08:12;;;;;;;2.97;1.80;;;15.00;99.90;;;;;;5114237;28;20540;-69
2023/05/06 06:10:39;;;;;;;2.17;1.47;;;15.10;99.90;;;;;;5113454;28;20443;-73
2023/05/06 06:13:06;;;;;;;2.73;1.10;;;15.20;99.90;;;;;;5114513;28;20479;-68
2023/05/06 06:15:35;;;;;;;2.60;1.27;;;15.20;99.90;;;;;;5114702;28;20450;-68
2023/05/06 06:18:02;;;;;;;3.20;1.30;;;15.30;99.90;;;;;;5114563;28;20451;-68
2023/05/06 06:20:28;;;;;;;2.43;1.40;;;15.30;99.90;;;;;;5114112;28;20446;-68
2023/05/06 06:22:55;;;;;;;1.80;0.90;;;15.40;99.90;;;;;;5113231;28;20458;-68
2023/05/06 06:25:22;;;;;;;2.83;1.60;;;15.50;99.90;;;;;;5114411;27;20443;-69
2023/05/06 06:27:49;;;;;;;2.03;1.10;;;15.50;99.90;;;;;;5119998;27;20450;-68
2023/05/06 06:30:16;;;;;;;2.43;1.87;;;15.50;99.90;;;;;;5113823;28;20443;-66
2023/05/06 06:32:50;;;;;;;3.00;0.80;;;15.50;99.90;;;;;;5112634;28;20440;-70
2023/05/06 06:35:18;;;;;;;3.20;1.20;;;15.70;99.90;;;;;;5114129;28;20467;-70
2023/05/06 06:37:45;;;;;;;1.70;1.00;;;15.80;99.90;;;;;;5113257;28;20450;-69
2023/05/06 06:40:13;;;;;;;2.80;1.17;;;15.90;99.90;;;;;;5114131;28;20455;-70
2023/05/06 06:42:40;;;;;;;3.63;1.23;;;16.00;99.90;;;;;;5113183;28;20492;-71
2023/05/06 06:45:08;;;;;;;2.33;0.90;;;16.00;99.90;;;;;;5113715;28;20451;-69
2023/05/06 06:47:35;;;;;;;2.20;1.20;;;16.00;99.90;;;;;;5113684;28;20457;-72
2023/05/06 06:50:04;;;;;;;1.50;0.80;;;16.20;99.90;;;;;;5113666;28;21017;-70
2023/05/06 06:52:31;;;;;;;1.40;0.67;;;16.20;99.90;;;;;;5113401;28;20903;-68
2023/05/06 06:54:58;;;;;;;2.13;1.10;;;16.30;99.90;;;;;;5113016;28;20478;-70
2023/05/06 06:57:25;;;;;;;2.10;1.13;;;16.30;1.00;;;;;;5114068;28;20767;-72
2023/05/06 06:59:52;;;;;;;2.13;0.90;;;16.20;1.00;;;;;;5113090;28;20955;-72
2023/05/06 07:02:19;;;;;;;1.80;0.90;;;16.20;9.70;;;;;;5113030;28;20843;-70
2023/05/06 07:04:46;;;;;;;1.77;0.97;;;16.30;47.70;;;;;;5112970;28;20455;-71
2023/05/06 07:07:14;;;;;;;1.90;0.70;;;16.20;1.00;;;;;;5113672;28;20443;-70
2023/05/06 07:09:43;;;;;;;2.03;0.87;;;16.20;1.00;;;;;;5112479;28;20487;-71
2023/05/06 07:12:09;;;;;;;2.40;1.03;;;16.20;1.00;;;;;;5112989;28;20447;-71
2023/05/06 07:14:36;;;;;;;1.80;0.77;;;16.20;1.00;;;;;;5112676;28;20510;-72
2023/05/06 07:17:03;;;;;;;1.40;0.60;;;16.30;1.00;;;;;;5113414;28;20945;-71
2023/05/06 07:19:30;;;;;;;1.60;0.83;;;16.40;34.90;;;;;;5113118;28;20448;-72
2023/05/06 07:21:57;;;;;;;1.50;0.60;;;16.50;99.90;;;;;;5112495;28;20455;-71
2023/05/06 07:24:25;;;;;;;2.00;0.83;;;16.50;27.60;;;;;;5113107;28;20447;-72
2023/05/06 07:26:52;;;;;;;1.87;0.70;;;16.50;99.90;;;;;;5112810;28;20523;-72
2023/05/06 07:29:19;;;;;;;1.53;0.90;;;16.40;99.90;;;;;;5113181;28;20448;-72
2023/05/06 07:31:46;;;;;;;1.63;0.77;;;16.40;1.00;;;;;;5112459;28;20463;-72
2023/05/06 07:34:13;;;;;;;2.03;0.80;;;16.60;72.50;;;;;;5112966;28;20480;-75
2023/05/06 07:36:42;;;;;;;1.40;0.60;;;16.70;1.00;;;;;;5112562;28;20448;-72
2023/05/06 07:39:09;;;;;;;1.50;0.63;;;16.90;1.00;;;;;;5113135;28;20452;-72
2023/05/06 07:41:37;;;;;;;1.40;0.60;;;17.00;99.90;;;;;;5111831;28;21015;-75
2023/05/06 07:44:05;;;;;;;1.40;0.70;;;17.10;99.90;;;;;;5111472;28;20448;-75
2023/05/06 07:46:32;;;;;;;1.40;0.60;;;17.20;99.90;;;;;;5109010;28;20521;-72
2023/05/06 07:48:59;;;;;;;1.30;0.70;;;17.20;99.90;;;;;;5109529;28;20821;-73
2023/05/06 07:51:25;;;;;;;4.40;1.00;;;17.20;95.20;;;;;;5111144;28;20458;-75
2023/05/06 07:53:52;;;;;;;1.40;0.70;;;17.40;99.90;;;;;;5112084;28;20774;-76
2023/05/06 07:56:19;;;;;;;1.97;0.90;;;17.40;47.70;;;;;;5112090;28;20490;-76
2023/05/06 07:58:48;;;;;;;2.07;1.00;;;17.50;1.00;;;;;;5111891;28;20447;-75
2023/05/06 08:01:14;;;;;;;1.63;0.80;;;17.60;1.00;;;;;;5111461;28;20444;-76
2023/05/06 08:03:41;;;;;;;1.67;0.73;;;17.70;57.60;;;;;;5111916;28;20451;-75
2023/05/06 08:06:08;;;;;;;2.30;0.67;;;17.60;1.00;;;;;;5112178;28;20436;-79
2023/05/06 08:08:36;;;;;;;2.27;0.60;;;17.70;1.00;;;;;;5112371;28;20487;-74
2023/05/06 08:11:02;;;;;;;1.80;0.93;;;18.00;1.00;;;;;;5111069;28;20501;-69
2023/05/06 08:13:30;;;;;;;2.03;0.80;;;18.10;1.00;;;;;;5110938;28;20451;-73
2023/05/06 08:15:58;;;;;;;1.53;0.87;;;18.00;1.00;;;;;;5111715;28;20487;-75
2023/05/06 08:18:25;;;;;;;1.40;0.60;;;18.00;1.00;;;;;;5112579;28;20458;-75
2023/05/06 08:20:52;;;;;;;1.50;0.77;;;18.00;1.00;;;;;;5111454;28;20945;-75
2023/05/06 08:23:18;;;;;;;1.40;0.73;;;18.00;1.00;;;;;;5112003;28;20474;-75
2023/05/06 08:25:45;;;;;;;2.10;0.90;;;18.10;1.00;;;;;;5111735;28;20459;-75
2023/05/06 08:28:12;;;;;;;2.13;0.80;;;18.00;1.00;;;;;;5112345;28;20443;-76
2023/05/06 08:30:39;;;;;;;2.50;1.20;;;18.10;1.00;;;;;;5111563;28;20439;-75
2023/05/06 08:33:07;;;;;;;1.40;0.73;;;18.10;1.00;;;;;;5111705;28;20444;-75
2023/05/06 08:35:34;;;;;;;1.70;1.03;;;18.30;1.00;;;;;;5112422;28;20475;-75
2023/05/06 08:38:01;;;;;;;1.90;0.90;;;18.30;1.00;;;;;;5115258;28;20941;-74
2023/05/06 08:40:31;;;;;;;1.90;0.70;;;18.30;1.00;;;;;;5114129;28;20440;-74
2023/05/06 08:43:00;;;;;;;2.47;0.60;;;18.20;1.00;;;;;;5115633;28;20663;-74
2023/05/06 08:45:27;;;;;;;1.60;0.90;;;18.30;1.00;;;;;;5120422;28;20451;-75
2023/05/06 08:47:54;;;;;;;2.20;0.80;;;18.50;1.00;;;;;;5119681;28;20455;-75
2023/05/06 08:50:22;;;;;;;1.50;0.80;;;18.60;1.00;;;;;;5122032;28;20452;-74
2023/05/06 08:52:50;;;;;;;1.17;0.50;;;18.80;99.90;;;;;;5122651;28;20454;-73
2023/05/06 08:55:18;;;;;;;1.73;0.80;;;18.90;99.90;;;;;;5120016;28;20483;-75
2023/05/06 08:57:46;;;;;;;1.63;0.80;;;19.00;99.90;;;;;;5119768;28;20436;-74
2023/05/06 09:00:13;;;;;;;2.00;0.83;;;19.00;99.90;;;;;;5121014;28;20452;-74
2023/05/06 09:02:41;;;;;;;1.50;0.80;;;18.90;99.90;;;;;;5112076;28;20447;-75
2023/05/06 09:05:09;;;;;;;1.77;0.90;;;18.90;99.90;;;;;;5111802;28;20458;-75
2023/05/06 09:07:37;;;;;;;1.20;0.60;;;18.90;99.90;;;;;;5110982;28;20530;-72
2023/05/06 09:10:06;;;;;;;1.60;1.07;;;18.80;99.90;;;;;;5112001;28;20455;-73
2023/05/06 09:12:37;;;;;;;1.53;0.77;;;18.90;99.90;;;;;;5111174;28;20444;-74
2023/05/06 09:15:05;;;;;;;1.33;0.70;;;18.90;99.90;;;;;;5111727;28;20468;-73
2023/05/06 09:17:32;;;;;;;2.93;1.07;;;18.80;99.90;;;;;;5111606;28;20468;-73
2023/05/06 09:19:59;;;;;;;1.50;0.77;;;18.80;99.90;;;;;;5110531;28;20459;-74
2023/05/06 09:22:27;;;;;;;1.50;0.80;;;19.00;99.90;;;;;;5111037;28;20456;-74
2023/05/06 09:24:56;;;;;;;1.30;0.60;;;19.20;99.90;;;;;;5111698;28;20455;-74
2023/05/06 09:27:24;;;;;;;2.10;0.90;;;19.40;99.90;;;;;;5115464;28;20459;-74
2023/05/06 09:30:01;;;;;;;1.50;0.80;;;19.40;99.90;;;;;;5114871;28;20538;-74
2023/05/06 09:32:28;;;;;;;1.30;0.83;;;19.70;99.90;;;;;;5114839;28;20443;-74
2023/05/06 09:34:55;;;;;;;1.40;0.77;;;19.80;99.90;;;;;;5115032;28;20475;-75
2023/05/06 09:37:22;;;;;;;1.93;0.90;;;19.90;99.90;;;;;;5115493;28;20456;-75
2023/05/06 09:39:53;;;;;;;1.30;0.80;;;20.00;99.90;;;;;;5115206;28;20447;-75
2023/05/06 09:42:22;;;;;;;1.63;0.93;;;20.00;99.90;;;;;;5115179;28;20454;-75
2023/05/06 09:44:50;;;;;;;1.43;0.80;;;20.10;99.90;;;;;;5114591;28;20459;-74
2023/05/06 09:47:17;;;;;;;1.60;0.90;;;20.20;99.90;;;;;;5101649;28;20459;-74
2023/05/06 09:49:44;;;;;;;1.30;0.73;;;20.20;99.90;;;;;;5114599;28;20436;-75
2023/05/06 09:52:12;;;;;;;1.40;0.80;;;20.40;99.90;;;;;;5114792;28;20447;-75
2023/05/06 09:54:40;;;;;;;2.53;1.03;;;20.50;99.90;;;;;;5114345;28;20479;-75
2023/05/06 09:57:07;;;;;;;1.37;0.83;;;20.50;99.90;;;;;;5115375;28;20443;-75
2023/05/06 09:59:36;;;;;;;1.63;1.00;;;20.60;99.90;;;;;;5115319;28;20447;-75
2023/05/06 10:02:04;;;;;;;1.50;0.80;;;20.50;99.90;;;;;;5115538;28;20447;-74
2023/05/06 10:04:35;;;;;;;1.60;0.90;;;20.70;99.90;;;;;;5114712;28;20447;-74
2023/05/06 10:07:03;;;;;;;1.67;0.97;;;20.90;99.90;;;;;;5114655;28;20534;-74
2023/05/06 10:09:31;;;;;;;1.30;0.73;;;20.90;99.90;;;;;;5114882;28;20689;-74
2023/05/06 10:11:58;;;;;;;2.60;0.90;;;21.00;99.90;;;;;;5114513;28;20447;-74
2023/05/06 10:14:25;;;;;;;2.03;0.90;;;21.20;99.90;;;;;;5114501;28;20541;-74
2023/05/06 10:16:54;;;;;;;2.23;0.70;;;21.00;99.90;;;;;;5114262;28;20439;-75
2023/05/06 10:19:25;;;;;;;1.70;1.00;;;21.00;99.90;;;;;;5114571;28;20455;-74
2023/05/06 10:21:57;;;;;;;2.00;0.80;;;21.30;99.90;;;;;;5114411;28;20446;-74
2023/05/06 10:24:32;;;;;;;1.50;0.73;;;21.40;99.90;;;;;;5114179;28;21063;-73
2023/05/06 10:27:03;;;;;;;1.20;0.67;;;21.50;99.90;;;;;;5114362;28;20447;-73
2023/05/06 10:29:31;;;;;;;1.50;0.80;;;21.20;99.90;;;;;;5114395;28;20463;-73
2023/05/06 10:32:02;;;;;;;1.80;1.00;;;21.40;99.90;;;;;;5113596;28;20459;-74
2023/05/06 10:34:35;;;;;;;1.40;0.90;;;21.30;99.90;;;;;;5113717;28;20995;-74
2023/05/06 10:37:05;;;;;;;1.30;0.90;;;21.40;99.90;;;;;;5113709;28;20806;-74
2023/05/06 10:39:32;;;;;;;2.57;0.90;;;21.30;99.90;;;;;;5114731;28;20463;-72
2023/05/06 10:42:00;;;;;;;1.63;0.70;;;21.40;99.90;;;;;;5113491;28;20447;-73
2023/05/06 10:44:59;;;;;;;1.30;0.77;;;21.10;99.90;;;;;;5114106;28;20450;-75
2023/05/06 10:47:27;;;;;;;1.60;0.80;;;21.00;99.90;;;;;;5101711;28;20447;-75
2023/05/06 10:50:19;;;;;;;1.50;0.80;;;20.80;99.90;;;;;;5113437;28;20463;-75
2023/05/06 10:52:47;;;;;;;1.43;0.87;;;20.70;99.90;;;;;;5113179;28;20452;-74
2023/05/06 10:55:26;;;;;;;1.77;0.60;;;20.70;99.90;;;;;;5114069;28;20851;-73
2023/05/06 10:57:55;;;;;;;2.63;2.40;;;20.70;99.90;;;;;;5113213;28;20480;-73
2023/05/06 11:00:22;;;;;;;1.40;0.87;;;20.90;99.90;;;;;;5113467;28;20452;-72
2023/05/06 11:02:55;;;;;;;1.40;0.90;;;20.80;99.90;;;;;;5113284;28;20443;-73
2023/05/06 11:05:23;;;;;;;1.43;0.90;;;20.90;99.90;;;;;;5114005;28;20443;-74
2023/05/06 11:07:50;;;;;;;1.63;0.93;;;20.80;99.90;;;;;;5112838;28;20451;-74
2023/05/06 11:10:32;;;;;;;1.30;0.77;;;20.90;99.90;;;;;;5113856;28;20439;-73
2023/05/06 11:12:59;;;;;;;2.90;1.40;;;20.90;99.90;;;;;;5112409;28;20447;-73
2023/05/06 11:15:37;;;;;;;2.03;0.90;;;21.00;99.90;;;;;;5113804;28;20489;-73
2023/05/06 11:18:42;;;;;;;1.73;1.00;;;20.90;99.90;;;;;;5114016;28;20436;-73
2023/05/06 11:21:37;;;;;;;1.20;0.70;;;21.10;99.90;;;;;;5113696;28;20442;-75
2023/05/06 11:24:12;;;;;;;1.60;1.07;;;21.30;99.90;;;;;;5109110;28;20450;-74
2023/05/06 11:26:43;;;;;;;1.40;0.70;;;21.40;99.90;;;;;;5112675;28;20500;-73
2023/05/06 11:29:10;;;;;;;1.27;0.70;;;21.40;99.90;;;;;;5113355;28;20446;-73
2023/05/06 11:31:42;;;;;;;1.20;0.80;;;21.50;99.90;;;;;;5112862;28;20526;-74
2023/05/06 11:34:12;;;;;;;1.20;0.77;;;21.70;99.90;;;;;;5112237;28;20497;-73
2023/05/06 11:36:47;;;;;;;2.00;0.90;;;22.10;99.90;;;;;;5112619;28;20467;-73
2023/05/06 11:39:14;;;;;;;1.70;0.80;;;22.20;99.90;;;;;;5112858;28;20451;-73
2023/05/06 11:41:41;;;;;;;1.43;1.00;;;22.50;99.90;;;;;;5112666;28;20447;-74
2023/05/06 11:44:10;;;;;;;4.03;1.10;;;22.50;99.90;;;;;;5112752;28;20450;-73
2023/05/06 11:46:38;;;;;;;1.40;1.00;;;22.60;99.90;;;;;;5112068;28;20543;-74
2023/05/06 11:49:05;;;;;;;1.40;0.80;;;22.70;99.90;;;;;;5112169;28;20531;-73
2023/05/06 11:51:33;;;;;;;1.40;0.80;;;22.90;99.90;;;;;;5112669;28;20508;-73
2023/05/06 11:54:10;;;;;;;1.20;0.80;;;23.00;99.90;;;;;;5111857;28;20871;-73
2023/05/06 11:56:45;;;;;;;1.40;1.03;;;22.50;99.90;;;;;;5112304;28;20511;-75
2023/05/06 11:59:12;;;;;;;1.60;1.00;;;22.20;99.90;;;;;;5112852;28;20813;-74
2023/05/06 12:01:42;;;;;;;2.13;1.07;;;22.20;99.90;;;;;;5111906;28;20853;-74
2023/05/06 12:04:09;;;;;;;1.20;0.70;;;22.40;99.90;;;;;;5112248;28;20501;-74
2023/05/06 12:06:37;;;;;;;1.50;1.00;;;22.20;99.90;;;;;;5112114;28;20456;-73
2023/05/06 12:09:06;;;;;;;1.40;0.97;;;22.50;99.90;;;;;;5112626;28;20476;-73
2023/05/06 12:11:35;;;;;;;1.60;0.87;;;22.50;99.90;;;;;;5112820;28;20440;-73
2023/05/06 12:14:02;;;;;;;1.60;1.00;;;22.60;99.90;;;;;;5111949;28;20447;-73
2023/05/06 12:16:29;;;;;;;2.00;1.03;;;22.90;97.90;;;;;;5112341;28;20483;-73
2023/05/06 12:18:57;;;;;;;1.63;0.93;;;22.80;94.10;;;;;;5111912;28;20502;-73
2023/05/06 12:21:24;;;;;;;1.27;0.90;;;22.50;94.00;;;;;;5112097;28;20454;-73
2023/05/06 12:23:54;;;;;;;1.40;0.90;;;22.40;99.60;;;;;;5111303;28;20443;-73
2023/05/06 12:26:21;;;;;;;1.30;0.70;;;22.20;98.80;;;;;;5112277;28;20448;-73
2023/05/06 12:29:03;;;;;;;1.37;0.80;;;22.40;97.90;;;;;;5111133;28;20490;-73
2023/05/06 12:31:30;;;;;;;1.40;0.97;;;22.40;98.30;;;;;;5112090;28;20461;-73
2023/05/06 12:33:56;;;;;;;3.20;1.10;;;22.10;94.30;;;;;;5111236;28;20456;-73
2023/05/06 12:36:23;;;;;;;4.03;1.00;;;22.10;95.80;;;;;;5111887;28;20484;-73
2023/05/06 12:38:52;;;;;;;1.83;0.90;;;22.10;94.70;;;;;;5111580;28;20455;-74
2023/05/06 12:41:20;;;;;;;2.40;1.50;;;22.10;95.00;;;;;;5111721;28;20446;-74
2023/05/06 12:43:47;;;;;;;1.53;0.93;;;22.10;96.60;;;;;;5110720;28;20448;-74
2023/05/06 12:46:16;;;;;;;1.40;0.90;;;22.10;99.90;;;;;;5111902;28;20447;-74
2023/05/06 12:48:56;;;;;;;2.00;1.30;;;22.20;96.40;;;;;;5111114;28;20456;-74
2023/05/06 12:51:24;;;;;;;1.80;1.17;;;22.20;95.60;;;;;;5111230;28;20469;-74
2023/05/06 12:53:51;;;;;;;1.30;0.83;;;22.10;93.70;;;;;;5110591;28;20447;-74